Maratha — SWJF — position and weather

sailwx.info

Track history (hours):
 
Tides and Currents Weather Stations Pressure Air Temp Water Temp Dewpoint Dewpoint Depression Visibility Wind Speed Wind Dir Waves Ship Positions

Maratha

Last reported at 2017-Nov-19 07:34 UTC. Time now 2017-Nov-20 23:06 UTC.
Position N 45°14' E 014°32'.

Length 244 m; draft 13 m.

Type: Ship. MMSI: 240042000.

Date/timePositionNaut miles runAvg speedWind from/ knotsBaromVisibWave heightAir tempDewpointWater temp
2017-Nov-19 07:34N 45°14' E 014°32'0 0.1
2017-Nov-19 07:30N 45°14' E 014°32'0 0.0
2017-Nov-19 04:15N 45°14' E 014°32'0 0.0
2017-Nov-19 03:59N 45°14' E 014°32'0 0.1
2017-Nov-19 03:30N 45°14' E 014°32'1 1.1
2017-Nov-19 02:59N 45°14' E 014°32'2 4.4
2017-Nov-19 02:30N 45°15' E 014°29'2 4.7
2017-Nov-19 02:00N 45°15' E 014°26'1 2.7
2017-Nov-19 01:30N 45°15' E 014°24'3 6.0
2017-Nov-19 01:01N 45°14' E 014°20'5 9.2
2017-Nov-19 00:30N 45°10' E 014°17'611.3
2017-Nov-19 00:01N 45°04' E 014°15'810.8
2017-Nov-18 23:18N 44°57' E 014°14'811.1
2017-Nov-18 22:37N 44°50' E 014°08'111.2
2017-Nov-18 22:31N 44°49' E 014°08'611.2
2017-Nov-18 22:01N 44°44' E 014°07'611.0
2017-Nov-18 21:30N 44°38' E 014°06'611.1
2017-Nov-18 21:00N 44°33' E 014°05'610.9
2017-Nov-18 20:30N 44°27' E 014°07'611.4
2017-Nov-18 20:00N 44°22' E 014°10'  
2017-Nov-15 23:39N 37°39' E 024°29'211.0
2017-Nov-15 23:30N 37°41' E 024°29'  
Track history (hours):
 
Tides and Currents Weather Stations Pressure Air Temp Water Temp Dewpoint Dewpoint Depression Visibility Wind Speed Wind Dir Waves Ship Positions

Maratha

Last reported at 2017-Nov-19 07:34 UTC. Time now 2017-Nov-20 23:06 UTC.
Position N 45°14' E 014°32'.

Length 244 m; draft 13 m.

Type: Ship. MMSI: 240042000.

Date/timePositionNaut miles runAvg speedWind from/ knotsBaromVisibWave heightAir tempDewpointWater temp
2017-Nov-19 07:34N 45°14' E 014°32'0 0.1
2017-Nov-19 07:30N 45°14' E 014°32'0 0.0
2017-Nov-19 04:15N 45°14' E 014°32'0 0.0
2017-Nov-19 03:59N 45°14' E 014°32'0 0.1
2017-Nov-19 03:30N 45°14' E 014°32'1 1.1
2017-Nov-19 02:59N 45°14' E 014°32'2 4.4
2017-Nov-19 02:30N 45°15' E 014°29'2 4.7
2017-Nov-19 02:00N 45°15' E 014°26'1 2.7
2017-Nov-19 01:30N 45°15' E 014°24'3 6.0
2017-Nov-19 01:01N 45°14' E 014°20'5 9.2
2017-Nov-19 00:30N 45°10' E 014°17'611.3
2017-Nov-19 00:01N 45°04' E 014°15'810.8
2017-Nov-18 23:18N 44°57' E 014°14'811.1
2017-Nov-18 22:37N 44°50' E 014°08'111.2
2017-Nov-18 22:31N 44°49' E 014°08'611.2
2017-Nov-18 22:01N 44°44' E 014°07'611.0
2017-Nov-18 21:30N 44°38' E 014°06'611.1
2017-Nov-18 21:00N 44°33' E 014°05'610.9
2017-Nov-18 20:30N 44°27' E 014°07'611.4
2017-Nov-18 20:00N 44°22' E 014°10'  
2017-Nov-15 23:39N 37°39' E 024°29'211.0
2017-Nov-15 23:30N 37°41' E 024°29'  

Dump ship's entire track history